createdAt,value
2022-08-21T00:00:02.292Z,17.9
2022-08-21T00:01:10.649Z,17.9
2022-08-21T00:02:19.245Z,16.799999
2022-08-21T00:03:27.555Z,16.799999
2022-08-21T00:04:35.921Z,16.799999
2022-08-21T00:05:44.475Z,16.1
2022-08-21T00:06:52.828Z,16.1
2022-08-21T00:08:01.187Z,16.1
2022-08-21T00:09:09.733Z,16.9
2022-08-21T00:10:18.094Z,16.9
2022-08-21T00:11:26.453Z,16.9
2022-08-21T00:12:35.009Z,15.2
2022-08-21T00:13:43.375Z,15.2
2022-08-21T00:14:51.754Z,15.2
2022-08-21T00:16:00.295Z,15.1
2022-08-21T00:17:08.659Z,15.1
2022-08-21T00:18:17.003Z,15.1
2022-08-21T00:19:25.573Z,14.6
2022-08-21T00:20:33.940Z,14.6
2022-08-21T00:21:44.436Z,14.6
2022-08-21T00:22:50.895Z,14.7
2022-08-21T00:23:59.201Z,14.7
2022-08-21T00:25:07.569Z,14.7
2022-08-21T00:26:16.124Z,14.4
2022-08-21T00:27:24.478Z,14.4
2022-08-21T00:28:32.818Z,14.4
2022-08-21T00:29:41.374Z,14
2022-08-21T00:30:49.743Z,14
2022-08-21T00:31:58.091Z,14
2022-08-21T00:33:06.659Z,13.4
2022-08-21T00:34:15.006Z,13.4
2022-08-21T00:35:23.367Z,13.4
2022-08-21T00:36:31.933Z,14.4
2022-08-21T00:37:40.274Z,14.4
2022-08-21T00:38:48.632Z,14.4
2022-08-21T00:39:57.221Z,13.9
2022-08-21T00:41:21.221Z,13.9
2022-08-21T00:42:13.884Z,13.9
2022-08-21T00:43:22.451Z,14.6
2022-08-21T00:44:30.803Z,14.6
2022-08-21T00:45:39.159Z,14.6
2022-08-21T00:46:47.718Z,15
2022-08-21T00:47:56.079Z,15
2022-08-21T00:49:04.431Z,15
2022-08-21T00:50:15.055Z,14.2
2022-08-21T00:51:21.358Z,14.2
2022-08-21T00:52:29.699Z,14.2
2022-08-21T00:53:38.251Z,14.8
2022-08-21T00:54:46.675Z,14.8
2022-08-21T00:55:55.672Z,14.8
2022-08-21T00:57:03.544Z,14.4
2022-08-21T00:58:11.911Z,14.4
2022-08-21T00:59:20.278Z,14.4
2022-08-21T01:00:28.824Z,15.6
2022-08-21T01:01:37.249Z,15.6
2022-08-21T01:02:45.542Z,15.6
2022-08-21T01:03:54.087Z,14.7
2022-08-21T01:05:02.453Z,14.7
2022-08-21T01:06:10.807Z,14.7
2022-08-21T01:07:19.370Z,14
2022-08-21T01:08:27.713Z,14
2022-08-21T01:09:36.078Z,14
2022-08-21T01:10:44.641Z,12
2022-08-21T01:11:52.986Z,12
2022-08-21T01:13:01.344Z,12
2022-08-21T01:14:09.889Z,13.5
2022-08-21T01:15:18.257Z,13.5
2022-08-21T01:16:26.603Z,13.5
2022-08-21T01:17:35.162Z,13.1
2022-08-21T01:18:43.533Z,13.1
2022-08-21T01:19:51.896Z,13.1
2022-08-21T01:21:00.459Z,12.9
2022-08-21T01:22:08.817Z,12.9
2022-08-21T01:23:17.180Z,12.9
2022-08-21T01:24:25.735Z,12.4
2022-08-21T01:25:34.103Z,12.4
2022-08-21T01:26:42.464Z,12.4
2022-08-21T01:27:51.022Z,13.6
2022-08-21T01:28:59.371Z,13.6
2022-08-21T01:30:07.744Z,13.6
2022-08-21T01:31:16.308Z,12.6
2022-08-21T01:32:24.657Z,12.6
2022-08-21T01:33:33.007Z,12.6
2022-08-21T01:34:41.570Z,13.5
2022-08-21T01:35:49.927Z,13.5
2022-08-21T01:36:58.276Z,13.5
2022-08-21T01:38:06.843Z,14.9
2022-08-21T01:39:15.189Z,14.9
2022-08-21T01:40:23.602Z,14.9
2022-08-21T01:41:32.097Z,13
2022-08-21T01:42:40.461Z,13
2022-08-21T01:43:48.819Z,13
2022-08-21T01:44:57.371Z,14.8
2022-08-21T01:46:05.712Z,14.8
2022-08-21T01:47:14.066Z,14.8
2022-08-21T01:48:22.620Z,14.8
2022-08-21T01:49:30.963Z,14.8
2022-08-21T01:50:39.327Z,14.8
2022-08-21T01:51:47.895Z,15.1
2022-08-21T01:52:56.306Z,15.1
2022-08-21T01:54:04.600Z,15.1
2022-08-21T01:55:13.169Z,14.6
2022-08-21T01:56:21.516Z,14.6
2022-08-21T01:57:29.866Z,14.6
2022-08-21T01:58:38.421Z,13.9
2022-08-21T01:59:46.770Z,13.9
2022-08-21T02:00:55.158Z,13.9
2022-08-21T02:02:03.678Z,14
2022-08-21T02:03:12.028Z,14
2022-08-21T02:04:20.386Z,14
2022-08-21T02:05:28.961Z,14.5
2022-08-21T02:06:37.307Z,14.5
2022-08-21T02:07:45.683Z,14.5
2022-08-21T02:08:54.237Z,15
2022-08-21T02:10:02.594Z,15
2022-08-21T02:11:10.942Z,15
2022-08-21T02:12:19.517Z,14
2022-08-21T02:13:27.876Z,14
2022-08-21T02:14:36.237Z,14
2022-08-21T02:15:44.791Z,14.1
2022-08-21T02:16:53.137Z,14.1
2022-08-21T02:18:01.494Z,14.1
2022-08-21T02:19:10.059Z,15.1
2022-08-21T02:20:18.435Z,15.1
2022-08-21T02:21:26.785Z,15.1
2022-08-21T02:22:35.353Z,16.1
2022-08-21T02:23:43.724Z,16.1
2022-08-21T02:24:54.889Z,16.1
2022-08-21T02:26:00.634Z,16.799999
2022-08-21T02:27:08.984Z,16.799999
2022-08-21T02:28:17.334Z,16.799999
2022-08-21T02:29:25.925Z,17.299999
2022-08-21T02:30:34.258Z,17.299999
2022-08-21T02:31:42.603Z,17.299999
2022-08-21T02:32:51.213Z,18.5
2022-08-21T02:33:59.509Z,18.5
2022-08-21T02:35:07.877Z,18.5
2022-08-21T02:36:16.435Z,19.4
2022-08-21T02:37:24.783Z,19.4
2022-08-21T02:38:33.128Z,19.4
2022-08-21T02:39:41.754Z,20.700001
2022-08-21T02:40:50.986Z,20.700001
2022-08-21T02:41:58.420Z,20.700001
2022-08-21T02:43:06.972Z,21.4
2022-08-21T02:44:15.319Z,21.4
2022-08-21T02:45:23.686Z,21.4
2022-08-21T02:46:32.239Z,24.1
2022-08-21T02:47:40.596Z,24.1
2022-08-21T02:48:48.946Z,24.1
2022-08-21T02:49:57.532Z,22
2022-08-21T02:51:05.873Z,22
2022-08-21T02:52:14.221Z,22
2022-08-21T02:53:22.776Z,25.6
2022-08-21T02:54:31.138Z,25.6
2022-08-21T02:55:39.487Z,25.6
2022-08-21T02:56:48.046Z,32.200001
2022-08-21T02:57:56.400Z,32.200001
2022-08-21T02:59:04.749Z,32.200001
2022-08-21T03:00:13.320Z,29.200001
2022-08-21T03:01:21.759Z,29.200001
2022-08-21T03:02:30.025Z,29.200001
2022-08-21T03:03:38.569Z,33.200001
2022-08-21T03:04:46.981Z,33.200001
2022-08-21T03:05:55.298Z,33.200001
2022-08-21T03:07:03.852Z,33.5
2022-08-21T03:08:12.239Z,33.5
2022-08-21T03:09:20.558Z,33.5
2022-08-21T03:10:29.122Z,31.5
2022-08-21T03:11:37.472Z,31.5
2022-08-21T03:12:45.818Z,31.5
2022-08-21T03:13:54.377Z,35.900002
2022-08-21T03:15:02.747Z,35.900002
2022-08-21T03:16:11.090Z,35.900002
2022-08-21T03:17:19.658Z,41.900002
2022-08-21T03:18:28.014Z,41.900002
2022-08-21T03:19:36.390Z,41.900002
2022-08-21T03:20:44.959Z,42.400002
2022-08-21T03:21:53.304Z,42.400002
2022-08-21T03:23:01.879Z,42.400002
2022-08-21T03:24:10.221Z,39.900002
2022-08-21T03:25:18.591Z,39.900002
2022-08-21T03:26:27.996Z,39.900002
2022-08-21T03:27:35.504Z,37.700001
2022-08-21T03:28:43.858Z,37.700001
2022-08-21T03:29:52.225Z,37.700001
2022-08-21T03:31:00.791Z,36.5
2022-08-21T03:32:09.138Z,36.5
2022-08-21T03:33:17.488Z,36.5
2022-08-21T03:34:26.039Z,36.299999
2022-08-21T03:35:34.417Z,36.299999
2022-08-21T03:36:42.757Z,36.299999
2022-08-21T03:37:51.316Z,36
2022-08-21T03:38:59.676Z,36
2022-08-21T03:40:08.058Z,36
2022-08-21T03:41:16.590Z,35.200001
2022-08-21T03:42:24.938Z,35.200001
2022-08-21T03:43:33.286Z,35.200001
2022-08-21T03:44:41.853Z,33.900002
2022-08-21T03:45:50.214Z,33.900002
2022-08-21T03:46:58.557Z,33.900002
2022-08-21T03:48:07.471Z,34.400002
2022-08-21T03:49:15.470Z,34.400002
2022-08-21T03:50:23.836Z,34.400002
2022-08-21T03:51:32.396Z,35.700001
2022-08-21T03:52:40.740Z,35.700001
2022-08-21T03:53:49.103Z,35.700001
2022-08-21T03:54:57.669Z,37.799999
2022-08-21T03:56:06.033Z,37.799999
2022-08-21T03:57:14.377Z,37.799999
2022-08-21T03:58:22.927Z,32.700001
2022-08-21T03:59:31.288Z,32.700001
2022-08-21T04:00:39.678Z,32.700001
2022-08-21T04:01:48.274Z,34.5
2022-08-21T04:02:56.570Z,34.5
2022-08-21T04:04:04.920Z,34.5
2022-08-21T04:05:13.485Z,30.9
2022-08-21T04:06:21.840Z,30.9
2022-08-21T04:07:30.215Z,30.9
2022-08-21T04:08:38.768Z,31.5
2022-08-21T04:09:47.123Z,31.5
2022-08-21T04:10:55.479Z,31.5
2022-08-21T04:12:04.041Z,31.9
2022-08-21T04:13:12.397Z,31.9
2022-08-21T04:14:20.749Z,31.9
2022-08-21T04:15:29.340Z,32
2022-08-21T04:16:37.683Z,32
2022-08-21T04:17:46.031Z,32
2022-08-21T04:18:54.595Z,29
2022-08-21T04:20:02.943Z,29
2022-08-21T04:21:11.330Z,29
2022-08-21T04:22:19.893Z,28.4
2022-08-21T04:23:28.240Z,28.4
2022-08-21T04:24:36.612Z,28.4
2022-08-21T04:25:45.167Z,28.799999
2022-08-21T04:26:53.524Z,28.799999
2022-08-21T04:28:01.875Z,28.799999
2022-08-21T04:29:10.510Z,31.9
2022-08-21T04:30:18.781Z,31.9
2022-08-21T04:31:27.157Z,31.9
2022-08-21T04:32:35.683Z,32.599998
2022-08-21T04:33:44.041Z,32.599998
2022-08-21T04:34:52.404Z,32.599998
2022-08-21T04:36:00.955Z,33
2022-08-21T04:37:09.306Z,33
2022-08-21T04:38:17.666Z,33
2022-08-21T04:39:29.607Z,33.099998
2022-08-21T04:40:34.580Z,33.099998
2022-08-21T04:41:42.934Z,33.099998
2022-08-21T04:42:51.514Z,30.299999
2022-08-21T04:43:59.834Z,30.299999
2022-08-21T04:45:08.193Z,30.299999
2022-08-21T04:46:16.753Z,31
2022-08-21T04:47:25.111Z,31
2022-08-21T04:48:33.480Z,31
2022-08-21T04:49:42.071Z,31.6
2022-08-21T04:50:50.407Z,31.6
2022-08-21T04:51:58.757Z,31.6
2022-08-21T04:53:07.314Z,30
2022-08-21T04:54:15.706Z,30
2022-08-21T04:55:24.058Z,30
2022-08-21T04:56:32.612Z,27.299999
2022-08-21T04:57:48.275Z,27.299999
2022-08-21T04:58:49.330Z,27.299999
2022-08-21T04:59:57.889Z,26.4
2022-08-21T05:01:06.316Z,26.4
2022-08-21T05:02:14.615Z,26.4
2022-08-21T05:03:23.168Z,25.299999
2022-08-21T05:04:31.525Z,25.299999
2022-08-21T05:05:39.887Z,25.299999
2022-08-21T05:06:48.442Z,25.700001
2022-08-21T05:07:56.801Z,25.700001
2022-08-21T05:09:05.162Z,25.700001
2022-08-21T05:10:13.933Z,26.5
2022-08-21T05:11:22.083Z,26.5
2022-08-21T05:12:30.430Z,26.5
2022-08-21T05:13:38.979Z,23.5
2022-08-21T05:14:47.343Z,23.5
2022-08-21T05:15:55.706Z,23.5
2022-08-21T05:17:04.251Z,23.9
2022-08-21T05:18:12.593Z,23.9
2022-08-21T05:19:20.937Z,23.9
2022-08-21T05:20:29.514Z,25.700001
2022-08-21T05:21:37.865Z,25.700001
2022-08-21T05:22:46.217Z,25.700001
2022-08-21T05:23:54.829Z,29.700001
2022-08-21T05:25:03.228Z,29.700001
2022-08-21T05:26:18.066Z,29.700001
2022-08-21T05:27:20.145Z,24.5
2022-08-21T05:28:28.476Z,24.5
2022-08-21T05:29:36.835Z,24.5
2022-08-21T05:30:45.395Z,28.5
2022-08-21T05:31:53.741Z,28.5
2022-08-21T05:33:02.092Z,28.5
2022-08-21T05:34:10.668Z,27.200001
2022-08-21T05:35:19.014Z,27.200001
2022-08-21T05:36:27.365Z,27.200001
2022-08-21T05:37:35.917Z,26.9
2022-08-21T05:38:44.265Z,26.9
2022-08-21T05:40:04.357Z,26.9
2022-08-21T05:41:01.275Z,26.799999
2022-08-21T05:42:09.592Z,26.799999
2022-08-21T05:43:17.937Z,26.799999
2022-08-21T05:44:26.509Z,27.799999
2022-08-21T05:45:42.485Z,27.799999
2022-08-21T05:46:43.220Z,27.799999
2022-08-21T05:47:51.795Z,27.299999
2022-08-21T05:49:00.225Z,27.299999
2022-08-21T05:50:08.559Z,27.299999
2022-08-21T05:51:17.132Z,29.299999
2022-08-21T05:52:25.592Z,29.299999
2022-08-21T05:53:33.914Z,29.299999
2022-08-21T05:54:42.478Z,30.299999
2022-08-21T05:55:50.802Z,30.299999
2022-08-21T05:56:59.155Z,30.299999
2022-08-21T05:58:07.711Z,29.299999
2022-08-21T05:59:16.066Z,29.299999
2022-08-21T06:00:24.421Z,29.299999
2022-08-21T06:01:33.054Z,31.6
2022-08-21T06:02:41.337Z,31.6
2022-08-21T06:03:49.689Z,31.6
2022-08-21T06:04:58.247Z,29.9
2022-08-21T06:06:06.595Z,29.9
2022-08-21T06:07:14.937Z,29.9
2022-08-21T06:08:23.510Z,31.299999
2022-08-21T06:09:31.856Z,31.299999
2022-08-21T06:10:40.228Z,31.299999
2022-08-21T06:11:48.772Z,30.299999
2022-08-21T06:12:57.345Z,30.299999
2022-08-21T06:14:05.480Z,30.299999
2022-08-21T06:15:14.127Z,28.799999
2022-08-21T06:16:22.678Z,28.799999
2022-08-21T06:17:31.032Z,28.799999
2022-08-21T06:18:39.581Z,27.9
2022-08-21T06:19:47.946Z,27.9
2022-08-21T06:20:56.312Z,27.9
2022-08-21T06:22:04.881Z,30.200001
2022-08-21T06:23:13.258Z,30.200001
2022-08-21T06:24:21.627Z,30.200001
2022-08-21T06:25:30.199Z,24.799999
2022-08-21T06:26:38.559Z,24.799999
2022-08-21T06:27:46.916Z,24.799999
2022-08-21T06:28:55.496Z,27.9
2022-08-21T06:30:03.870Z,27.9
2022-08-21T06:31:12.223Z,27.9
2022-08-21T06:32:20.801Z,27.299999
2022-08-21T06:33:32.448Z,27.299999
2022-08-21T06:34:37.566Z,27.299999
2022-08-21T06:35:46.136Z,26.1
2022-08-21T06:36:54.515Z,26.1
2022-08-21T06:38:02.862Z,26.1
2022-08-21T06:39:12.337Z,26.200001
2022-08-21T06:40:19.943Z,26.200001
2022-08-21T06:41:28.164Z,26.200001
2022-08-21T06:42:36.845Z,24.4
2022-08-21T06:43:45.197Z,24.4
2022-08-21T06:44:53.775Z,24.4
2022-08-21T06:46:02.380Z,25.299999
2022-08-21T06:47:10.731Z,25.299999
2022-08-21T06:48:19.585Z,25.299999
2022-08-21T06:49:27.629Z,25
2022-08-21T06:50:36.035Z,25
2022-08-21T06:51:44.397Z,25
2022-08-21T06:52:52.956Z,25.799999
2022-08-21T06:54:01.304Z,25.799999
2022-08-21T06:55:09.819Z,25.799999
2022-08-21T06:56:18.380Z,26.799999
2022-08-21T06:57:26.714Z,26.799999
2022-08-21T06:58:35.084Z,26.799999
2022-08-21T06:59:43.691Z,26.4
2022-08-21T07:00:52.030Z,26.4
2022-08-21T07:02:00.446Z,26.4
2022-08-21T07:03:08.954Z,26.299999
2022-08-21T07:04:17.310Z,26.299999
2022-08-21T07:05:25.672Z,26.299999
2022-08-21T07:06:34.245Z,27
2022-08-21T07:07:42.566Z,27
2022-08-21T07:08:50.929Z,27
2022-08-21T07:09:59.481Z,27.1
2022-08-21T07:11:07.832Z,27.1
2022-08-21T07:12:16.411Z,27.1
2022-08-21T07:13:24.957Z,23
2022-08-21T07:14:33.323Z,23
2022-08-21T07:15:41.693Z,23
2022-08-21T07:16:50.265Z,23.200001
2022-08-21T07:17:58.617Z,23.200001
2022-08-21T07:19:06.966Z,23.200001
2022-08-21T07:20:15.523Z,19.6
2022-08-21T07:21:25.898Z,19.6
2022-08-21T07:22:32.236Z,19.6
2022-08-21T07:23:40.795Z,21.700001
2022-08-21T07:24:49.153Z,21.700001
2022-08-21T07:25:57.509Z,21.700001
2022-08-21T07:27:09.505Z,18.799999
2022-08-21T07:28:14.386Z,18.799999
2022-08-21T07:29:22.719Z,18.799999
2022-08-21T07:30:31.281Z,19.9
2022-08-21T07:31:39.632Z,19.9
2022-08-21T07:32:47.977Z,19.9
2022-08-21T07:33:56.553Z,17
2022-08-21T07:35:04.883Z,17
2022-08-21T07:36:13.239Z,17
2022-08-21T07:37:21.793Z,17.5
2022-08-21T07:38:30.139Z,17.5
2022-08-21T07:39:38.551Z,17.5
2022-08-21T07:40:47.055Z,17.200001
2022-08-21T07:41:55.385Z,17.200001
2022-08-21T07:43:03.724Z,17.200001
2022-08-21T07:44:12.610Z,20
2022-08-21T07:45:20.641Z,20
2022-08-21T07:46:28.968Z,20
2022-08-21T07:47:41.975Z,19.299999
2022-08-21T07:48:45.877Z,19.299999
2022-08-21T07:49:54.233Z,19.299999
2022-08-21T07:51:02.789Z,19.6
2022-08-21T07:52:11.136Z,19.6
2022-08-21T07:53:19.495Z,19.6
2022-08-21T07:54:33.405Z,21
2022-08-21T07:55:36.445Z,21
2022-08-21T07:56:44.802Z,21
2022-08-21T07:57:53.368Z,18.6
2022-08-21T07:59:01.722Z,18.6
2022-08-21T08:00:10.079Z,18.6
2022-08-21T08:01:18.694Z,20.4
2022-08-21T08:02:26.991Z,20.4
2022-08-21T08:03:35.328Z,20.4
2022-08-21T08:04:50.553Z,18.1
2022-08-21T08:05:52.220Z,18.1
2022-08-21T08:07:00.550Z,18.1
2022-08-21T08:08:09.100Z,15.9
2022-08-21T08:09:17.461Z,15.9
2022-08-21T08:10:25.817Z,15.9
2022-08-21T08:11:34.380Z,14.8
2022-08-21T08:12:42.724Z,14.8
2022-08-21T08:13:51.059Z,14.8
2022-08-21T08:14:59.618Z,15
2022-08-21T08:16:07.955Z,15
2022-08-21T08:17:16.292Z,15
2022-08-21T08:18:24.830Z,14.3
2022-08-21T08:19:33.196Z,14.3
2022-08-21T08:20:41.546Z,14.3
2022-08-21T08:21:50.088Z,15.8
2022-08-21T08:22:58.443Z,15.8
2022-08-21T08:24:17.972Z,15.8
2022-08-21T08:25:15.340Z,16.9
2022-08-21T08:26:23.688Z,16.9
2022-08-21T08:27:32.029Z,16.9
2022-08-21T08:28:40.598Z,17.700001
2022-08-21T08:29:48.948Z,17.700001
2022-08-21T08:30:57.293Z,17.700001
2022-08-21T08:32:05.868Z,18.4
2022-08-21T08:33:14.201Z,18.4
2022-08-21T08:34:23.688Z,18.4
2022-08-21T08:35:31.143Z,18.6
2022-08-21T08:36:40.465Z,18.6
2022-08-21T08:37:49.058Z,18.6
2022-08-21T08:38:56.358Z,18.9
2022-08-21T08:40:05.512Z,18.9
2022-08-21T08:41:13.084Z,18.9
2022-08-21T08:42:27.298Z,17.5
2022-08-21T08:43:29.999Z,17.5
2022-08-21T08:44:38.361Z,17.5
2022-08-21T08:45:46.916Z,18.299999
2022-08-21T08:46:57.457Z,18.299999
2022-08-21T08:48:03.641Z,18.299999
2022-08-21T08:49:12.223Z,18.299999
2022-08-21T08:50:20.559Z,18.299999
2022-08-21T08:51:28.915Z,18.299999
2022-08-21T08:52:37.470Z,17.299999
2022-08-21T08:53:45.823Z,17.299999
2022-08-21T08:54:54.195Z,17.299999
2022-08-21T08:56:02.781Z,18.200001
2022-08-21T08:57:11.129Z,18.200001
2022-08-21T08:58:19.471Z,18.200001
2022-08-21T08:59:30.797Z,17.9
2022-08-21T09:00:38.242Z,17.9
2022-08-21T09:01:46.637Z,17.9
2022-08-21T09:02:55.289Z,18.1
2022-08-21T09:04:03.513Z,18.1
2022-08-21T09:05:12.006Z,18.1
2022-08-21T09:06:20.728Z,17.700001
2022-08-21T09:07:29.084Z,17.700001
2022-08-21T09:08:37.594Z,17.700001
2022-08-21T09:09:46.192Z,18.700001
2022-08-21T09:10:54.772Z,18.700001
2022-08-21T09:12:03.207Z,18.700001
2022-08-21T09:13:11.798Z,18.799999
2022-08-21T09:14:20.290Z,18.799999
2022-08-21T09:15:29.160Z,18.799999
2022-08-21T09:16:37.715Z,17.799999
2022-08-21T09:17:46.057Z,17.799999
2022-08-21T09:18:55.616Z,17.799999
2022-08-21T09:20:04.377Z,18.299999
2022-08-21T09:21:12.717Z,18.299999
2022-08-21T09:22:21.043Z,18.299999
2022-08-21T09:23:29.578Z,18.700001
2022-08-21T09:24:37.916Z,18.700001
2022-08-21T09:25:46.261Z,18.700001
2022-08-21T09:26:54.804Z,17.6
2022-08-21T09:28:03.134Z,17.6
2022-08-21T09:29:11.540Z,17.6
2022-08-21T09:30:20.427Z,17.299999
2022-08-21T09:31:28.682Z,17.299999
2022-08-21T09:32:38.163Z,17.299999
2022-08-21T09:33:45.589Z,18.700001
2022-08-21T09:34:53.930Z,18.700001
2022-08-21T09:36:02.287Z,18.700001
2022-08-21T09:37:10.861Z,17.9
2022-08-21T09:38:19.221Z,17.9
2022-08-21T09:39:27.566Z,17.9
2022-08-21T09:40:36.176Z,18.1
2022-08-21T09:41:44.462Z,18.1
2022-08-21T09:42:52.806Z,18.1
2022-08-21T09:44:01.355Z,17.9
2022-08-21T09:45:09.689Z,17.9
2022-08-21T09:46:18.027Z,17.9
2022-08-21T09:47:26.956Z,18.200001
2022-08-21T09:48:34.938Z,18.200001
2022-08-21T09:49:43.295Z,18.200001
2022-08-21T09:50:51.838Z,18.9
2022-08-21T09:52:00.164Z,18.9
2022-08-21T09:53:08.507Z,18.9
2022-08-21T09:54:17.058Z,18.1
2022-08-21T09:55:25.390Z,18.1
2022-08-21T09:56:33.727Z,18.1
2022-08-21T09:57:42.880Z,17.9
2022-08-21T09:58:50.655Z,17.9
2022-08-21T09:59:59.005Z,17.9
2022-08-21T10:01:07.618Z,15.4
2022-08-21T10:02:15.947Z,15.4
2022-08-21T10:03:24.255Z,15.4
2022-08-21T10:04:32.822Z,17.4
2022-08-21T10:05:41.178Z,17.4
2022-08-21T10:06:49.533Z,17.4
2022-08-21T10:07:58.113Z,18.1
2022-08-21T10:09:06.441Z,18.1
2022-08-21T10:10:14.892Z,18.1
2022-08-21T10:11:23.339Z,16.5
2022-08-21T10:12:31.686Z,16.5
2022-08-21T10:13:40.023Z,16.5
2022-08-21T10:14:48.563Z,15.1
2022-08-21T10:15:56.908Z,15.1
2022-08-21T10:17:05.247Z,15.1
2022-08-21T10:18:13.833Z,15.2
2022-08-21T10:19:23.684Z,15.2
2022-08-21T10:20:30.778Z,15.2
2022-08-21T10:21:39.312Z,15.6
2022-08-21T10:22:47.829Z,15.6
2022-08-21T10:23:56.135Z,15.6
2022-08-21T10:25:04.680Z,16.9
2022-08-21T10:26:14.517Z,16.9
2022-08-21T10:27:21.642Z,16.9
2022-08-21T10:28:30.204Z,16.5
2022-08-21T10:29:38.671Z,16.5
2022-08-21T10:30:47.098Z,16.5
2022-08-21T10:31:55.669Z,15
2022-08-21T10:33:05.499Z,15
2022-08-21T10:34:13.924Z,15
2022-08-21T10:35:22.485Z,16.200001
2022-08-21T10:36:30.856Z,16.200001
2022-08-21T10:37:42.580Z,16.200001
2022-08-21T10:39:07.287Z,14.2
2022-08-21T10:39:59.599Z,14.2
2022-08-21T10:41:07.875Z,14.2
2022-08-21T10:42:16.440Z,13.1
2022-08-21T10:43:24.793Z,13.1
2022-08-21T10:44:33.147Z,13.1
2022-08-21T10:45:41.699Z,12.1
2022-08-21T10:46:50.082Z,12.1
2022-08-21T10:47:58.501Z,12.1
2022-08-21T10:49:07.027Z,12.6
2022-08-21T10:50:15.370Z,12.6
2022-08-21T10:51:25.309Z,12.6
2022-08-21T10:52:32.301Z,11.5
2022-08-21T10:53:40.690Z,11.5
2022-08-21T10:54:49.041Z,11.5
2022-08-21T10:55:57.601Z,11.9
2022-08-21T10:57:05.974Z,11.9
2022-08-21T10:58:14.328Z,11.9
2022-08-21T10:59:22.892Z,12
2022-08-21T11:00:31.265Z,12
2022-08-21T11:01:39.602Z,12
2022-08-21T11:02:48.172Z,11
2022-08-21T11:03:56.531Z,11
2022-08-21T11:05:04.877Z,11
2022-08-21T11:06:13.426Z,12.1
2022-08-21T11:07:21.802Z,12.1
2022-08-21T11:08:30.134Z,12.1
2022-08-21T11:09:38.691Z,11.3
2022-08-21T11:10:51.391Z,11.3
2022-08-21T11:11:59.595Z,11.3
2022-08-21T11:13:04.526Z,10.4
2022-08-21T11:14:12.885Z,10.4
2022-08-21T11:15:29.421Z,10.4
2022-08-21T11:16:29.852Z,9
2022-08-21T11:17:38.214Z,9
2022-08-21T11:18:46.557Z,9
2022-08-21T11:19:55.121Z,9.7
2022-08-21T11:21:03.474Z,9.7
2022-08-21T11:22:11.810Z,9.7
2022-08-21T11:23:20.367Z,10.7
2022-08-21T11:24:28.717Z,10.7
2022-08-21T11:25:37.241Z,10.7
2022-08-21T11:26:45.629Z,8.8
2022-08-21T11:27:54.000Z,8.8
2022-08-21T11:29:02.323Z,8.8
2022-08-21T11:30:10.891Z,8.6
2022-08-21T11:31:19.221Z,8.6
2022-08-21T11:32:27.561Z,8.6
2022-08-21T11:33:36.112Z,8
2022-08-21T11:34:44.548Z,8
2022-08-21T11:35:52.891Z,8
2022-08-21T11:37:01.451Z,8.4
2022-08-21T11:38:09.823Z,8.4
2022-08-21T11:39:18.177Z,8.4
2022-08-21T11:40:27.077Z,7.2
2022-08-21T11:41:35.409Z,7.2
2022-08-21T11:42:43.766Z,7.2
2022-08-21T11:43:52.587Z,7.9
2022-08-21T11:45:00.936Z,7.9
2022-08-21T11:46:09.283Z,7.9
2022-08-21T11:47:17.853Z,6.9
2022-08-21T11:48:26.487Z,6.9
2022-08-21T11:49:34.829Z,6.9
2022-08-21T11:50:43.409Z,7.6
2022-08-21T11:51:51.786Z,7.6
2022-08-21T11:53:00.316Z,7.6
2022-08-21T11:54:08.695Z,7.1
2022-08-21T11:55:17.021Z,7.1
2022-08-21T11:56:25.346Z,7.1
2022-08-21T11:57:33.896Z,6
2022-08-21T11:58:42.237Z,6
2022-08-21T11:59:50.583Z,6
2022-08-21T12:00:59.162Z,6.7
2022-08-21T12:02:07.577Z,6.7
2022-08-21T12:03:15.837Z,6.7
2022-08-21T12:04:24.398Z,6.4
2022-08-21T12:05:32.761Z,6.4
2022-08-21T12:06:41.125Z,6.4
2022-08-21T12:07:49.705Z,6.7
2022-08-21T12:08:58.040Z,6.7
2022-08-21T12:10:06.508Z,6.7
2022-08-21T12:11:14.963Z,6.6
2022-08-21T12:12:23.340Z,6.6
2022-08-21T12:13:33.954Z,6.6
2022-08-21T12:14:40.273Z,6
2022-08-21T12:15:48.611Z,6
2022-08-21T12:16:56.963Z,6
2022-08-21T12:18:05.536Z,6.2
2022-08-21T12:19:14.474Z,6.2
2022-08-21T12:20:22.826Z,6.2
2022-08-21T12:21:31.378Z,5.7
2022-08-21T12:22:39.737Z,5.7
2022-08-21T12:23:48.097Z,5.7
2022-08-21T12:24:56.676Z,6.8
2022-08-21T12:26:05.030Z,6.8
2022-08-21T12:27:13.492Z,6.8
2022-08-21T12:28:22.050Z,6
2022-08-21T12:29:30.415Z,6
2022-08-21T12:30:39.656Z,6
2022-08-21T12:31:48.225Z,6.7
2022-08-21T12:32:56.601Z,6.7
2022-08-21T12:34:05.003Z,6.7
2022-08-21T12:35:14.236Z,6.1
2022-08-21T12:36:21.933Z,6.1
2022-08-21T12:37:30.304Z,6.1
2022-08-21T12:38:38.857Z,7.5
2022-08-21T12:39:47.243Z,7.5
2022-08-21T12:40:55.568Z,7.5
2022-08-21T12:42:04.139Z,6.4
2022-08-21T12:43:12.498Z,6.4
2022-08-21T12:44:20.853Z,6.4
2022-08-21T12:45:29.426Z,6.4
2022-08-21T12:46:37.788Z,6.4
2022-08-21T12:47:46.152Z,6.4
2022-08-21T12:48:54.718Z,6.3
2022-08-21T12:50:03.149Z,6.3
2022-08-21T12:51:11.411Z,6.3
2022-08-21T12:52:19.984Z,6.9
2022-08-21T12:53:28.337Z,6.9
2022-08-21T12:54:37.490Z,6.9
2022-08-21T12:55:46.063Z,6.8
2022-08-21T12:56:54.413Z,6.8
2022-08-21T12:58:02.769Z,6.8
2022-08-21T12:59:11.327Z,6.8
2022-08-21T13:00:19.704Z,6.8
2022-08-21T13:01:28.147Z,6.8
2022-08-21T13:02:36.617Z,6.9
2022-08-21T13:03:44.980Z,6.9
2022-08-21T13:04:53.323Z,6.9
2022-08-21T13:06:01.889Z,5.4
2022-08-21T13:07:10.260Z,5.4
2022-08-21T13:08:18.613Z,5.4
2022-08-21T13:09:27.179Z,6
2022-08-21T13:10:35.547Z,6
2022-08-21T13:11:43.892Z,6
2022-08-21T13:12:52.524Z,6.7
2022-08-21T13:14:04.695Z,6.7
2022-08-21T13:15:09.453Z,6.7
2022-08-21T13:16:17.760Z,6.4
2022-08-21T13:17:26.193Z,6.4
2022-08-21T13:18:34.462Z,6.4
2022-08-21T13:19:43.026Z,6.4
2022-08-21T13:20:51.375Z,6.4
2022-08-21T13:21:59.735Z,6.4
2022-08-21T13:23:08.303Z,5.2
2022-08-21T13:24:39.034Z,5.2
2022-08-21T13:25:25.021Z,5.2
2022-08-21T13:26:33.561Z,5
2022-08-21T13:27:41.914Z,5
2022-08-21T13:28:50.279Z,5
2022-08-21T13:29:58.832Z,4.8
2022-08-21T13:31:07.212Z,4.8
2022-08-21T13:32:15.561Z,4.8
2022-08-21T13:33:24.127Z,5.4
2022-08-21T13:34:32.496Z,5.4
2022-08-21T13:35:40.862Z,5.4
2022-08-21T13:36:49.419Z,5.2
2022-08-21T13:37:57.773Z,5.2
2022-08-21T13:39:06.119Z,5.2
2022-08-21T13:40:14.745Z,4.9
2022-08-21T13:41:23.054Z,4.9
2022-08-21T13:42:31.408Z,4.9
2022-08-21T13:43:39.971Z,5.2
2022-08-21T13:44:48.319Z,5.2
2022-08-21T13:45:56.693Z,5.2
2022-08-21T13:47:05.254Z,4.5
2022-08-21T13:48:13.610Z,4.5
2022-08-21T13:49:21.957Z,4.5
2022-08-21T13:50:30.530Z,7.3
2022-08-21T13:51:38.893Z,7.3
2022-08-21T13:52:47.234Z,7.3
2022-08-21T13:53:55.798Z,5.3
2022-08-21T13:55:04.147Z,5.3
2022-08-21T13:56:12.532Z,5.3
2022-08-21T13:57:21.104Z,4.6
2022-08-21T13:58:29.443Z,4.6
2022-08-21T13:59:37.796Z,4.6
2022-08-21T14:00:46.358Z,4.6
2022-08-21T14:01:54.731Z,4.6
2022-08-21T14:03:03.081Z,4.6
2022-08-21T14:04:11.666Z,4.9
2022-08-21T14:05:20.018Z,4.9
2022-08-21T14:06:28.555Z,4.9
2022-08-21T14:07:38.076Z,5.2
2022-08-21T14:08:46.440Z,5.2
2022-08-21T14:09:54.779Z,5.2
2022-08-21T14:11:03.370Z,5.4
2022-08-21T14:12:11.718Z,5.4
2022-08-21T14:13:20.069Z,5.4
2022-08-21T14:14:28.640Z,5.8
2022-08-21T14:15:39.547Z,5.8
2022-08-21T14:16:48.345Z,5.8
2022-08-21T14:17:56.927Z,6.7
2022-08-21T14:19:05.266Z,6.7
2022-08-21T14:20:13.605Z,6.7
2022-08-21T14:21:22.188Z,5
2022-08-21T14:22:30.564Z,5
2022-08-21T14:23:38.898Z,5
2022-08-21T14:24:47.474Z,5.5
2022-08-21T14:25:55.833Z,5.5
2022-08-21T14:27:04.202Z,5.5
2022-08-21T14:28:15.518Z,4.3
2022-08-21T14:29:22.374Z,4.3
2022-08-21T15:03:46.309Z,0
2022-08-21T15:04:54.679Z,0
2022-08-21T15:06:03.173Z,0
2022-08-21T15:07:11.754Z,5.4
2022-08-21T15:08:20.114Z,5.4
2022-08-21T15:09:28.466Z,5.4
2022-08-21T15:10:44.202Z,6.8
2022-08-21T15:11:45.398Z,6.8
2022-08-21T15:12:53.750Z,6.8
2022-08-21T15:14:02.327Z,5.7
2022-08-21T15:15:10.690Z,5.7
2022-08-21T15:16:19.044Z,5.7
2022-08-21T15:17:27.617Z,7.7
2022-08-21T15:18:35.967Z,7.7
2022-08-21T15:19:44.332Z,7.7
2022-08-21T15:20:52.912Z,4.9